Time;durP1;ratioP1;P1;durP2;ratioP2;P2;SDS_P1;SDS_P2;PMS_P1;PMS_P2;Temp;Humidity;BMP_temperature;BMP_pressure;BME280_temperature;BME280_humidity;BME280_pressure;Samples;Min_cycle;Max_cycle;Signal;HPM_P1;HPM_P2
2022/08/07 00:00:24;;;;;;;;;2.00;2.00;;;;;24.93;28.55;101933.63;5035179;28;48169;-58
2022/08/07 00:02:49;;;;;;;;;7.25;3.75;;;;;24.93;28.77;101925.66;5035811;28;45951;-55
2022/08/07 00:05:15;;;;;;;;;4.00;4.00;;;;;24.90;28.73;101921.41;5035549;28;45777;-58
2022/08/07 00:07:40;;;;;;;;;2.25;2.25;;;;;24.92;29.08;101921.31;5059193;27;44852;-57
2022/08/07 00:10:06;;;;;;;;;5.00;4.00;;;;;24.91;28.93;101923.13;5041081;28;45405;-57
2022/08/07 00:12:31;;;;;;;;;4.00;4.00;;;;;24.90;28.71;101921.41;5037537;28;45402;-58
2022/08/07 00:14:57;;;;;;;;;2.50;2.50;;;;;24.87;28.75;101913.59;5044348;28;45741;-58
2022/08/07 00:17:23;;;;;;;;;4.00;4.00;;;;;24.84;28.52;101919.94;5048553;28;45227;-58
2022/08/07 00:19:48;;;;;;;;;4.50;4.00;;;;;24.83;28.58;101914.75;5036742;28;46112;-58
2022/08/07 00:22:14;;;;;;;;;3.00;3.00;;;;;24.81;28.82;101917.47;5039115;28;45422;-56
2022/08/07 00:24:39;;;;;;;;;8.25;4.75;;;;;24.82;29.24;101919.19;5039850;28;45266;-56
2022/08/07 00:27:04;;;;;;;;;6.50;3.75;;;;;24.81;29.19;101911.31;5040744;28;45238;-58
2022/08/07 00:29:30;;;;;;;;;2.50;2.50;;;;;24.82;28.67;101913.03;5039167;28;45241;-57
2022/08/07 00:31:58;;;;;;;;;4.00;4.00;;;;;24.82;29.22;101910.38;5038601;28;45441;-56
2022/08/07 00:34:25;;;;;;;;;4.00;4.00;;;;;24.82;28.68;101913.03;5038013;28;45488;-56
2022/08/07 00:36:50;;;;;;;;;7.00;4.50;;;;;24.81;29.19;101909.50;5044403;28;45247;-58
2022/08/07 00:39:15;;;;;;;;;4.00;3.00;;;;;24.79;28.79;101906.13;5049121;28;45965;-57
2022/08/07 00:41:50;;;;;;;;;4.00;4.00;;;;;24.77;28.94;101893.88;5041834;28;45321;-58
2022/08/07 00:44:16;;;;;;;;;6.75;4.75;;;;;24.79;29.39;101902.59;5039046;28;45276;-58
2022/08/07 00:46:41;;;;;;;;;5.00;4.50;;;;;24.77;29.21;101905.34;5038703;28;45260;-58
2022/08/07 00:49:08;;;;;;;;;4.00;3.00;;;;;24.75;29.42;101895.78;5038806;28;46168;-54
2022/08/07 00:51:33;;;;;;;;;3.50;3.25;;;;;24.73;28.86;101893.19;5039000;28;45525;-57
2022/08/07 00:53:59;;;;;;;;;4.00;4.00;;;;;24.72;29.52;101893.28;5038492;28;45226;-58
2022/08/07 00:56:24;;;;;;;;;4.00;4.00;;;;;24.72;29.56;101895.94;5038719;28;45397;-58
2022/08/07 00:58:49;;;;;;;;;4.00;4.00;;;;;24.71;29.54;101889.78;5038712;28;46271;-58
2022/08/07 01:01:17;;;;;;;;;4.25;3.50;;;;;24.72;29.52;101888.81;5040301;28;45610;-57
2022/08/07 01:03:42;;;;;;;;;4.00;4.00;;;;;24.72;29.65;101883.53;5044436;28;45433;-56
2022/08/07 01:06:08;;;;;;;;;4.00;4.00;;;;;24.72;29.24;101885.34;5059682;28;45300;-56
2022/08/07 01:08:33;;;;;;;;;4.00;3.00;;;;;24.72;29.35;101885.34;5045860;28;46232;-54
2022/08/07 01:10:59;;;;;;;;;4.00;4.00;;;;;24.68;29.54;101880.19;5037926;28;47734;-57
2022/08/07 01:13:25;;;;;;;;;2.75;2.75;;;;;24.67;29.26;101877.63;5038203;28;45341;-57
2022/08/07 01:15:51;;;;;;;;;3.00;3.00;;;;;24.66;29.15;101875.91;5038247;28;45475;-58
2022/08/07 01:18:17;;;;;;;;;4.00;4.00;;;;;24.63;29.89;101876.06;5038278;28;45296;-58
2022/08/07 01:20:49;;;;;;;;;5.25;2.25;;;;;24.61;29.58;101873.50;5037946;28;45223;-57
2022/08/07 01:23:16;;;;;;;;;4.75;3.00;;;;;24.62;29.37;101874.34;5038416;28;45397;-60
2022/08/07 01:25:42;;;;;;;;;2.25;2.25;;;;;24.64;29.76;101872.47;5037998;28;45619;-58
2022/08/07 01:28:07;;;;;;;;;4.00;4.00;;;;;24.61;29.87;101870.88;5038055;28;46081;-58
2022/08/07 01:30:36;;;;;;;;;2.50;2.50;;;;;24.61;29.31;101876.16;5037861;28;45223;-58
2022/08/07 01:33:02;;;;;;;;;4.50;4.00;;;;;24.60;29.59;101860.34;5038805;28;45400;-58
2022/08/07 01:35:27;;;;;;;;;5.00;2.25;;;;;24.60;29.51;101868.28;5054189;28;45500;-55
2022/08/07 01:37:52;;;;;;;;;3.75;3.00;;;;;24.59;29.60;101869.22;5053258;28;46214;-58
2022/08/07 01:40:20;;;;;;;;;5.25;3.25;;;;;24.57;29.59;101869.31;5055233;27;49856;-51
2022/08/07 01:42:46;;;;;;;;;3.00;2.00;;;;;24.56;29.52;101864.97;5054593;28;45338;-56
2022/08/07 01:45:11;;;;;;;;;5.00;3.00;;;;;24.54;29.55;101877.44;5038251;28;45568;-55
2022/08/07 01:47:36;;;;;;;;;3.25;2.00;;;;;24.52;30.19;101868.75;5038294;28;47020;-56
2022/08/07 01:50:03;;;;;;;;;3.25;2.75;;;;;24.49;29.60;101876.84;5038337;28;45352;-58
2022/08/07 01:52:31;;;;;;;;;5.75;3.50;;;;;24.48;29.60;101872.50;5037651;28;45263;-53
2022/08/07 01:54:59;;;;;;;;;4.00;2.25;;;;;24.47;29.95;101876.94;5037620;28;45473;-58
2022/08/07 01:57:33;;;;;;;;;5.25;3.00;;;;;24.46;30.19;101871.72;5036209;28;48977;-58
2022/08/07 02:00:04;;;;;;;;;4.00;4.00;;;;;24.46;30.31;101874.38;5037099;28;45731;-59
2022/08/07 02:02:37;;;;;;;;;5.00;3.25;;;;;24.46;29.79;101872.59;5037599;28;45279;-57
2022/08/07 02:05:08;;;;;;;;;3.75;3.75;;;;;24.45;29.52;101867.34;5038245;28;45389;-58
2022/08/07 02:07:41;;;;;;;;;4.50;3.75;;;;;24.44;30.16;101879.75;5038960;28;45409;-56
2022/08/07 02:10:07;;;;;;;;;3.25;3.00;;;;;24.42;30.20;101868.38;5050124;28;45350;-53
2022/08/07 02:12:37;;;;;;;;;3.25;3.25;;;;;24.42;30.25;101867.56;5047187;28;45466;-55
2022/08/07 02:15:04;;;;;;;;;2.00;2.00;;;;;24.43;30.28;101879.84;5053992;28;45378;-51
2022/08/07 02:17:31;;;;;;;;;3.00;3.00;;;;;24.44;30.19;101886.84;5061614;28;46014;-52
2022/08/07 02:19:59;;;;;;;;;4.25;3.00;;;;;24.42;30.23;101872.84;5043297;28;45636;-53
2022/08/07 02:22:26;;;;;;;;;3.00;3.00;;;;;24.43;30.28;101877.19;5037264;28;45318;-53
2022/08/07 02:24:54;;;;;;;;;4.00;4.00;;;;;24.42;29.96;101878.16;5037204;28;45256;-52
2022/08/07 02:27:22;;;;;;;;;3.00;3.00;;;;;24.41;30.52;101873.78;5037139;28;47040;-55
2022/08/07 02:29:49;;;;;;;;;2.75;2.75;;;;;24.41;30.43;101871.13;5036847;28;45279;-55
2022/08/07 02:32:17;;;;;;;;;3.00;2.00;;;;;24.39;30.46;101874.72;5036573;28;45383;-56
2022/08/07 02:34:45;;;;;;;;;4.00;3.00;;;;;24.40;29.95;101870.25;5037093;28;45260;-56
2022/08/07 02:37:12;;;;;;;;;8.50;3.00;;;;;24.38;30.68;101867.72;5038790;28;46234;-58
2022/08/07 02:39:41;;;;;;;;;4.75;4.00;;;;;24.40;30.54;101862.31;5050021;27;45306;-55
2022/08/07 02:42:07;;;;;;;;;3.75;3.75;;;;;24.39;30.63;101868.56;5041893;27;45237;-58
2022/08/07 02:44:34;;;;;;;;;3.25;3.25;;;;;24.38;30.62;101870.34;5037508;28;45398;-58
2022/08/07 02:47:02;;;;;;;;;5.00;4.00;;;;;24.38;30.61;101864.19;5036625;28;46318;-57
2022/08/07 02:49:28;;;;;;;;;2.00;2.00;;;;;24.32;30.41;101857.44;5037086;28;45721;-58
2022/08/07 02:51:57;;;;;;;;;3.00;3.00;;;;;24.32;30.48;101862.75;5036783;28;45389;-57
2022/08/07 02:54:26;;;;;;;;;5.00;2.50;;;;;24.30;30.88;101858.47;5040009;28;45341;-58
2022/08/07 02:56:54;;;;;;;;;3.25;3.00;;;;;24.27;30.71;101856.84;5055028;28;46096;-57
2022/08/07 02:59:24;;;;;;;;;5.50;4.00;;;;;24.26;30.47;101851.63;5036417;28;45287;-53
2022/08/07 03:01:50;;;;;;;;;3.75;1.75;;;;;24.24;30.77;101857.88;5035918;28;45329;-54
2022/08/07 03:04:17;;;;;;;;;3.00;3.00;;;;;24.22;30.49;101858.88;5036938;28;45520;-53
2022/08/07 03:06:44;;;;;;;;;4.00;4.00;;;;;24.19;30.67;101851.97;5036385;28;47002;-56
2022/08/07 03:09:10;;;;;;;;;3.00;3.00;;;;;24.16;30.86;101861.88;5036714;28;45782;-56
2022/08/07 03:11:37;;;;;;;;;3.00;3.00;;;;;24.16;30.69;101856.59;5038084;28;45288;-57
2022/08/07 03:14:04;;;;;;;;;3.00;3.00;;;;;24.15;30.55;101845.13;5052481;28;45494;-55
2022/08/07 03:16:31;;;;;;;;;3.50;2.75;;;;;24.18;31.30;101850.25;5052598;28;47176;-57
2022/08/07 03:18:59;;;;;;;;;4.00;4.00;;;;;24.19;31.13;101854.63;5038440;28;45355;-58
2022/08/07 03:21:25;;;;;;;;;5.00;3.00;;;;;24.18;30.66;101863.50;5053298;28;45375;-57
2022/08/07 03:23:54;;;;;;;;;3.00;3.00;;;;;24.17;30.73;101853.00;5050241;28;45345;-57
2022/08/07 03:26:24;;;;;;;;;3.00;3.00;;;;;24.17;31.37;101855.66;5035830;28;47129;-56
2022/08/07 03:28:50;;;;;;;;;3.00;3.00;;;;;24.15;30.93;101844.28;5035665;28;45448;-57
2022/08/07 03:31:19;;;;;;;;;2.00;2.00;;;;;24.12;30.96;101852.38;5036548;28;45331;-58
2022/08/07 03:33:51;;;;;;;;;4.00;3.00;;;;;24.09;31.22;101851.59;5037276;28;45231;-55
2022/08/07 03:36:19;;;;;;;;;4.50;3.75;;;;;24.08;31.14;101849.94;5039842;28;45243;-58
2022/08/07 03:38:46;;;;;;;;;2.50;2.50;;;;;24.08;31.21;101862.31;5043099;28;45210;-55
2022/08/07 03:41:13;;;;;;;;;2.00;2.00;;;;;24.06;30.79;101849.16;5044991;28;45267;-57
2022/08/07 03:43:39;;;;;;;;;4.25;3.50;;;;;24.05;31.35;101855.38;5042952;28;45346;-55
2022/08/07 03:46:06;;;;;;;;;3.75;3.25;;;;;24.06;31.10;101862.41;5050817;28;45235;-57
2022/08/07 03:48:35;;;;;;;;;2.00;2.00;;;;;24.07;31.48;101863.25;5044656;28;45256;-56
2022/08/07 03:51:02;;;;;;;;;3.25;3.25;;;;;24.05;31.49;101865.09;5045273;28;45632;-56
2022/08/07 03:53:27;;;;;;;;;4.00;2.00;;;;;24.04;31.28;101861.63;5048478;28;45298;-58
2022/08/07 03:55:54;;;;;;;;;4.00;3.00;;;;;24.03;31.41;101865.19;5052642;28;45391;-56
2022/08/07 03:58:20;;;;;;;;;3.25;2.00;;;;;24.03;31.63;101861.72;5061877;28;45187;-55
2022/08/07 04:00:48;;;;;;;;;3.75;3.75;;;;;24.02;31.24;101858.19;5062744;28;44776;-53
2022/08/07 04:03:14;;;;;;;;;4.25;3.00;;;;;23.98;31.68;101869.03;5063715;28;44856;-55
2022/08/07 04:05:40;;;;;;;;;4.00;4.00;;;;;23.94;31.66;101863.03;5063016;28;45075;-53
2022/08/07 04:08:08;;;;;;;;;3.75;3.00;;;;;23.96;31.66;101865.59;5059991;28;44828;-55
2022/08/07 04:10:33;;;;;;;;;4.00;4.00;;;;;23.93;31.66;101861.31;5063825;28;45280;-54
2022/08/07 04:12:59;;;;;;;;;2.75;2.75;;;;;23.94;31.88;101857.72;5057663;28;45299;-56
2022/08/07 04:15:26;;;;;;;;;4.00;2.25;;;;;23.92;31.83;101859.59;5054594;28;45438;-57
2022/08/07 04:17:51;;;;;;;;;5.00;2.50;;;;;23.92;31.91;101855.13;5052891;28;45808;-54
2022/08/07 04:20:18;;;;;;;;;4.75;3.25;;;;;23.91;31.73;101856.09;5039190;28;45388;-52
2022/08/07 04:22:43;;;;;;;;;4.00;4.00;;;;;23.87;31.79;101857.19;5035763;28;45340;-56
2022/08/07 04:25:10;;;;;;;;;6.00;3.00;;;;;23.86;31.80;101865.22;5035352;28;47130;-55
2022/08/07 04:27:35;;;;;;;;;3.00;3.00;;;;;23.86;31.84;101865.22;5035968;28;45735;-54
2022/08/07 04:30:00;;;;;;;;;2.00;2.00;;;;;23.85;31.88;101853.78;5035762;28;45459;-56
2022/08/07 04:32:26;;;;;;;;;3.00;3.00;;;;;23.86;31.91;101855.47;5036355;28;45485;-53
2022/08/07 04:34:53;;;;;;;;;3.00;3.00;;;;;23.88;32.08;101853.63;5035838;28;45888;-52
2022/08/07 04:37:19;;;;;;;;;4.00;3.00;;;;;23.88;31.93;101853.63;5037961;28;45417;-54
2022/08/07 04:39:45;;;;;;;;;2.75;2.75;;;;;23.90;32.11;101858.81;5035337;28;45464;-51
2022/08/07 04:42:10;;;;;;;;;3.00;3.00;;;;;23.88;32.15;101864.19;5054785;28;45540;-56
2022/08/07 04:44:36;;;;;;;;;2.50;2.50;;;;;23.87;32.10;101858.97;5057789;28;45440;-60
2022/08/07 04:47:10;;;;;;;;;3.75;3.25;;;;;23.87;32.16;101856.31;5053058;28;45393;-57
2022/08/07 04:49:45;;;;;;;;;6.25;3.25;;;;;23.88;32.21;101858.03;5054058;28;45101;-55
2022/08/07 04:52:23;;;;;;;;;7.00;4.00;;;;;23.90;31.80;101861.47;5035910;28;45726;-57
2022/08/07 04:54:59;;;;;;;;;4.00;4.00;;;;;23.90;32.15;101866.75;5033310;28;45412;-58
2022/08/07 04:57:45;;;;;;;;;6.50;4.25;;;;;23.90;32.24;101864.13;5034497;28;45245;-58
2022/08/07 05:00:16;;;;;;;;;3.00;3.00;;;;;23.88;31.92;101861.56;5034593;28;45500;-57
2022/08/07 05:03:07;;;;;;;;;6.25;3.75;;;;;23.90;32.38;101864.13;5035868;28;45185;-57
2022/08/07 05:05:49;;;;;;;;;2.00;2.00;;;;;23.90;32.39;101872.94;5035024;28;46511;-56
2022/08/07 05:08:24;;;;;;;;;2.25;1.75;;;;;23.88;31.92;101884.50;5037238;28;45485;-55
2022/08/07 05:11:20;;;;;;;;;3.50;3.25;;;;;23.86;31.87;101870.53;5038774;28;45315;-56
2022/08/07 05:13:56;;;;;;;;;3.25;3.25;;;;;23.86;32.12;101875.81;5038887;28;45971;-57
2022/08/07 05:16:25;;;;;;;;;6.00;3.50;;;;;23.89;32.28;101895.03;5037762;28;46532;-53
2022/08/07 05:18:55;;;;;;;;;2.50;2.50;;;;;23.89;32.31;101891.53;5038519;28;45339;-51
2022/08/07 05:21:24;;;;;;;;;67.75;37.25;;;;;23.90;32.42;101893.22;5038291;28;45217;-52
2022/08/07 05:24:03;;;;;;;;;10.00;5.50;;;;;23.90;32.27;101898.53;5038888;28;45393;-54
2022/08/07 05:26:31;;;;;;;;;4.00;4.00;;;;;23.85;32.46;101896.13;5038010;28;45316;-55
2022/08/07 05:29:01;;;;;;;;;6.75;4.00;;;;;23.81;32.44;101899.03;5038556;28;45300;-58
2022/08/07 05:31:32;;;;;;;;;6.25;3.00;;;;;23.77;31.91;101903.63;5042679;28;45272;-60
2022/08/07 05:33:58;;;;;;;;;3.50;3.50;;;;;23.73;32.57;101902.94;5049413;28;45451;-59
2022/08/07 05:36:26;;;;;;;;;3.75;3.25;;;;;23.70;32.32;101900.44;5044548;28;45306;-59
2022/08/07 05:38:52;;;;;;;;;5.25;4.00;;;;;23.68;32.40;101909.41;5048691;28;45244;-59
2022/08/07 05:41:17;;;;;;;;;7.75;4.75;;;;;23.62;32.32;101900.84;5050806;28;45148;-56
2022/08/07 05:43:46;;;;;;;;;5.25;5.00;;;;;23.59;32.45;101905.44;5045273;28;45151;-57
2022/08/07 05:46:13;;;;;;;;;5.00;5.00;;;;;23.55;32.76;101910.03;5037223;28;46097;-58
2022/08/07 05:48:39;;;;;;;;;5.75;4.00;;;;;23.52;32.70;101909.34;5037673;28;45785;-55
2022/08/07 05:51:06;;;;;;;;;3.00;3.00;;;;;23.50;32.75;101901.47;5038210;28;45338;-56
2022/08/07 05:53:32;;;;;;;;;3.75;2.50;;;;;23.44;32.75;101907.94;5037950;28;45532;-54
2022/08/07 05:55:58;;;;;;;;;7.00;4.00;;;;;23.44;32.75;101907.94;5037243;28;46275;-58
2022/08/07 05:58:26;;;;;;;;;2.00;2.00;;;;;23.40;32.73;101914.31;5036903;28;45323;-59
2022/08/07 06:00:53;;;;;;;;;4.00;4.00;;;;;23.38;32.75;101917.97;5037291;28;45402;-60
2022/08/07 06:03:22;;;;;;;;;3.00;3.00;;;;;23.34;32.75;101919.91;5037177;28;45467;-57
2022/08/07 06:05:49;;;;;;;;;3.00;3.00;;;;;23.31;32.66;101918.28;5037233;28;46151;-58
2022/08/07 06:08:18;;;;;;;;;5.00;4.25;;;;;23.30;32.96;101918.38;5037025;28;45378;-58
2022/08/07 06:10:45;;;;;;;;;3.00;3.00;;;;;23.27;32.96;101915.88;5038051;28;45379;-58
2022/08/07 06:13:11;;;;;;;;;5.50;4.00;;;;;23.25;33.00;101912.44;5051911;28;45620;-58
2022/08/07 06:15:39;;;;;;;;;3.00;3.00;;;;;23.23;33.13;101912.53;5054638;28;45505;-54
2022/08/07 06:18:05;;;;;;;;;5.00;3.00;;;;;23.22;33.19;101913.47;5039947;28;45763;-60
2022/08/07 06:20:33;;;;;;;;;4.00;3.00;;;;;23.23;33.31;101911.66;5053584;28;45822;-57
2022/08/07 06:22:59;;;;;;;;;3.00;3.00;;;;;23.22;33.05;101913.47;5054476;28;45439;-60
2022/08/07 06:25:25;;;;;;;;;4.00;2.25;;;;;23.23;33.12;101914.31;5036827;28;47354;-58
2022/08/07 06:27:50;;;;;;;;;3.50;3.00;;;;;23.20;33.06;101919.75;5036466;28;45450;-59
2022/08/07 06:30:15;;;;;;;;;2.25;2.00;;;;;23.20;33.31;101912.66;5036594;28;45225;-60
2022/08/07 06:32:41;;;;;;;;;2.50;2.50;;;;;23.20;33.14;101914.47;5036664;28;53679;-59
2022/08/07 06:35:07;;;;;;;;;4.00;3.00;;;;;23.20;33.28;101909.19;5036597;28;47003;-57
2022/08/07 06:37:32;;;;;;;;;2.00;2.00;;;;;23.20;33.39;101909.19;5037096;28;45224;-58
2022/08/07 06:39:57;;;;;;;;;3.25;3.00;;;;;23.17;33.08;101913.66;5036983;28;45407;-59
2022/08/07 06:42:25;;;;;;;;;2.00;2.00;;;;;23.14;33.24;101910.31;5035858;28;57561;-59
2022/08/07 06:44:54;;;;;;;;;5.50;4.00;;;;;23.14;33.11;101903.22;5036591;28;46188;-60
2022/08/07 06:47:19;;;;;;;;;3.75;3.00;;;;;23.14;33.11;101895.28;5036495;28;45327;-59
2022/08/07 06:49:45;;;;;;;;;6.25;3.00;;;;;23.14;33.47;101899.72;5036899;28;45395;-60
2022/08/07 06:52:13;;;;;;;;;2.50;2.00;;;;;23.14;33.58;101903.22;5036621;28;45534;-60
2022/08/07 06:54:39;;;;;;;;;3.75;3.75;;;;;23.16;33.02;101906.66;5040050;28;46039;-54
2022/08/07 06:57:07;;;;;;;;;4.75;4.00;;;;;23.17;33.19;101910.13;5052395;28;45757;-60
2022/08/07 06:59:36;;;;;;;;;5.00;2.75;;;;;23.16;33.22;101901.38;5047001;28;45458;-59
2022/08/07 07:02:03;;;;;;;;;3.00;3.00;;;;;23.17;33.22;101908.38;5041007;28;45449;-60
2022/08/07 07:04:30;;;;;;;;;2.75;2.75;;;;;23.19;33.79;101904.78;5036755;28;46300;-56
2022/08/07 07:06:55;;;;;;;;;2.25;2.25;;;;;23.20;33.53;101901.25;5036750;28;45343;-55
2022/08/07 07:09:29;;;;;;;;;3.00;3.00;;;;;23.23;33.36;101907.22;5036462;28;45869;-59
2022/08/07 07:12:06;;;;;;;;;2.25;2.25;;;;;23.23;33.46;101920.47;5036877;28;45545;-60
2022/08/07 07:14:35;;;;;;;;;5.75;4.00;;;;;23.24;33.49;101913.38;5036949;28;46055;-59
2022/08/07 07:17:07;;;;;;;;;7.25;3.00;;;;;23.24;33.67;101916.00;5036842;28;45421;-60
2022/08/07 07:19:37;;;;;;;;;8.75;4.00;;;;;23.20;33.93;101911.81;5037175;28;45405;-59
2022/08/07 07:22:03;;;;;;;;;8.00;4.00;;;;;23.24;33.27;101921.31;5035939;28;45529;-59
2022/08/07 07:24:30;;;;;;;;;3.00;3.00;;;;;23.22;33.33;101912.59;5036483;28;46968;-59
2022/08/07 07:26:59;;;;;;;;;4.25;2.75;;;;;23.23;33.62;101915.16;5038680;28;45196;-59
2022/08/07 07:29:29;;;;;;;;;5.00;2.25;;;;;23.23;33.37;101916.94;5048499;28;44783;-59
2022/08/07 07:31:55;;;;;;;;;2.00;2.00;;;;;23.21;33.44;101900.28;5056504;28;45510;-59
2022/08/07 07:34:29;;;;;;;;;4.75;3.50;;;;;23.22;33.52;101910.81;5042200;28;45389;-59
2022/08/07 07:36:57;;;;;;;;;2.00;2.00;;;;;23.19;33.39;101907.44;5036013;28;45307;-60
2022/08/07 07:39:25;;;;;;;;;2.75;2.75;;;;;23.17;33.47;101903.06;5036009;28;45376;-59
2022/08/07 07:41:50;;;;;;;;;2.00;2.00;;;;;23.22;33.31;101912.59;5036174;28;45422;-60
2022/08/07 07:44:19;;;;;;;;;4.00;2.25;;;;;23.22;33.32;101908.16;5034783;28;45480;-60
2022/08/07 07:46:46;;;;;;;;;2.75;1.75;;;;;23.23;33.40;101896.66;5036119;28;45333;-59
2022/08/07 07:49:14;;;;;;;;;2.50;2.50;;;;;23.25;33.42;101897.44;5035877;28;45319;-59
2022/08/07 07:51:43;;;;;;;;;2.25;1.50;;;;;23.26;33.24;101893.84;5039040;28;45453;-60
2022/08/07 07:54:13;;;;;;;;;3.00;1.00;;;;;23.27;33.52;101908.78;5060676;28;46049;-52
2022/08/07 07:56:40;;;;;;;;;3.50;2.25;;;;;23.29;33.40;101898.13;5043542;28;45683;-58
2022/08/07 07:59:06;;;;;;;;;3.00;2.50;;;;;23.30;32.86;101899.84;5035965;28;45272;-56
2022/08/07 08:01:36;;;;;;;;;2.50;2.50;;;;;23.31;32.96;101899.75;5035569;28;45621;-59
2022/08/07 08:04:05;;;;;;;;;3.00;3.00;;;;;23.32;33.09;101892.66;5035871;28;46045;-58
2022/08/07 08:06:32;;;;;;;;;3.00;3.00;;;;;23.32;33.01;101890.03;5035315;28;45266;-59
2022/08/07 08:09:00;;;;;;;;;2.00;1.50;;;;;23.35;33.13;101897.81;5036653;28;45275;-59
2022/08/07 08:11:26;;;;;;;;;3.25;2.25;;;;;23.37;33.09;101897.75;5039050;28;45794;-60
2022/08/07 08:13:52;;;;;;;;;0.00;0.00;;;;;23.38;33.04;101897.66;5056705;28;45497;-58
2022/08/07 08:16:20;;;;;;;;;2.00;2.00;;;;;23.39;32.94;101896.75;5051121;28;48258;-58
2022/08/07 08:18:50;;;;;;;;;4.00;3.00;;;;;23.41;32.84;101889.59;5036180;28;45306;-59
2022/08/07 08:27:10;;;;;;;;;1.50;1.00;;;;;23.47;32.71;101880.47;5035316;28;45481;-56
2022/08/07 08:30:00;;;;;;;;;2.00;1.00;;;;;23.50;32.71;101884.75;5035676;28;45383;-54
2022/08/07 08:32:30;;;;;;;;;1.25;1.25;;;;;23.51;32.77;101881.16;5035009;28;45371;-56
2022/08/07 13:12:10;;;;;;;;;4.00;4.00;;;;;24.89;29.88;101691.66;5239809;22;45325;-56
2022/08/07 13:15:06;;;;;;;;;4.00;3.00;;;;;24.91;30.21;101683.63;5056001;28;47027;-56
2022/08/07 13:17:45;;;;;;;;;5.00;4.75;;;;;24.92;30.39;101680.84;5056103;28;45632;-56
2022/08/07 13:20:24;;;;;;;;;5.75;4.00;;;;;24.93;30.33;101682.56;5055740;28;45439;-56
2022/08/07 13:23:14;;;;;;;;;6.00;3.00;;;;;24.93;30.11;101679.91;5056358;28;45481;-58
2022/08/07 13:25:49;;;;;;;;;4.00;3.00;;;;;24.93;29.90;101679.03;5055859;28;46442;-56
2022/08/07 13:28:21;;;;;;;;;3.75;3.00;;;;;24.94;29.98;101678.09;5057499;28;45329;-56
2022/08/07 13:31:09;;;;;;;;;6.00;4.00;;;;;24.94;30.14;101681.63;5059514;28;45341;-56
2022/08/07 13:33:50;;;;;;;;;2.75;2.50;;;;;24.94;30.34;101673.66;5058136;28;58239;-56
2022/08/07 13:36:29;;;;;;;;;3.00;3.00;;;;;24.94;29.93;101667.50;5061132;28;46541;-56
2022/08/07 13:39:03;;;;;;;;;3.00;3.00;;;;;24.95;29.95;101670.06;5061442;28;45704;-56
2022/08/07 13:41:43;;;;;;;;;6.00;5.00;;;;;24.94;30.45;101667.50;5059567;28;45381;-57
2022/08/07 13:44:10;;;;;;;;;4.75;3.00;;;;;24.94;30.48;101673.66;5059503;28;45380;-58
2022/08/07 13:46:43;;;;;;;;;2.50;2.50;;;;;24.93;30.44;101666.66;5061501;28;46495;-57
2022/08/07 13:49:12;;;;;;;;;3.25;3.25;;;;;24.94;30.01;101656.88;5063531;28;45315;-58
2022/08/07 13:51:38;;;;;;;;;3.00;3.00;;;;;24.89;29.99;101646.56;5067560;28;45326;-57
2022/08/07 13:54:11;;;;;;;;;3.50;3.00;;;;;24.94;30.45;101656.88;5071405;28;45330;-58
2022/08/07 13:56:38;;;;;;;;;2.00;2.00;;;;;24.94;30.04;101654.22;5066983;28;47672;-58
2022/08/07 13:59:23;;;;;;;;;2.00;2.00;;;;;24.95;30.56;101654.16;5068184;28;45737;-58
2022/08/07 14:02:10;;;;;;;;;3.00;3.00;;;;;24.93;30.03;101640.13;5072219;28;45345;-58
2022/08/07 14:04:44;;;;;;;;;3.00;3.00;;;;;24.95;30.25;101640.91;5070155;28;45341;-59
2022/08/07 14:07:11;;;;;;;;;2.75;2.75;;;;;24.94;29.88;101652.44;5068956;28;46742;-58
2022/08/07 14:09:39;;;;;;;;;2.00;2.00;;;;;24.95;30.38;101658.59;5067983;28;45355;-59
2022/08/07 14:12:08;;;;;;;;;6.00;2.25;;;;;24.96;29.82;101655.88;5060469;28;45422;-57
2022/08/07 14:14:47;;;;;;;;;2.00;2.00;;;;;24.96;29.66;101650.56;5060510;28;45314;-57
2022/08/07 14:17:14;;;;;;;;;4.75;3.00;;;;;24.96;30.28;101644.41;5061779;28;45427;-57
2022/08/07 14:19:58;;;;;;;;;2.25;2.25;;;;;24.96;30.16;101639.09;5058469;28;45373;-57
2022/08/07 14:22:27;;;;;;;;;2.00;2.00;;;;;24.97;30.35;101638.16;5076575;28;45338;-57
2022/08/07 14:24:58;;;;;;;;;3.00;3.00;;;;;24.97;29.95;101632.84;5074757;28;44852;-59
2022/08/07 14:27:36;;;;;;;;;3.00;3.00;;;;;24.97;30.31;101632.84;5058777;28;45609;-59
2022/08/07 14:30:10;;;;;;;;;3.00;3.00;;;;;24.96;30.13;101634.66;5058734;28;45433;-58
2022/08/07 14:32:44;;;;;;;;;3.00;3.00;;;;;24.96;30.08;101629.34;5058419;28;44752;-58
2022/08/07 14:35:16;;;;;;;;;1.75;1.75;;;;;24.97;30.31;101631.03;5058098;28;45397;-58
2022/08/07 14:37:48;;;;;;;;;2.00;2.00;;;;;24.98;29.90;101622.13;5056368;28;46240;-58
2022/08/07 14:40:16;;;;;;;;;4.00;2.25;;;;;24.98;29.90;101610.69;5063701;28;45907;-58
2022/08/07 14:42:43;;;;;;;;;2.00;2.00;;;;;24.96;30.17;101613.44;5059222;28;45464;-58
2022/08/07 14:45:11;;;;;;;;;1.25;1.25;;;;;24.98;30.08;101610.69;5075854;28;45451;-58
2022/08/07 14:47:39;;;;;;;;;2.50;2.00;;;;;24.98;29.92;101619.47;5078771;28;46236;-59
2022/08/07 14:50:07;;;;;;;;;2.75;2.75;;;;;24.98;29.63;101608.88;5076478;28;45793;-58
2022/08/07 14:52:36;;;;;;;;;3.00;2.25;;;;;24.99;29.75;101623.00;5062810;28;45361;-59
2022/08/07 14:55:03;;;;;;;;;3.00;2.00;;;;;25.00;30.18;101614.94;5061551;28;45253;-59
2022/08/07 14:57:31;;;;;;;;;4.25;3.00;;;;;24.99;30.13;101607.91;5057516;28;46542;-58
2022/08/07 14:59:58;;;;;;;;;3.75;2.75;;;;;24.99;29.71;101607.91;5057931;28;45469;-59
2022/08/07 15:02:26;;;;;;;;;2.00;2.00;;;;;24.99;30.05;101599.13;5057088;28;45472;-59
2022/08/07 15:04:51;;;;;;;;;2.50;2.50;;;;;25.00;29.83;101601.66;5076215;28;45344;-58
2022/08/07 15:07:23;;;;;;;;;1.00;1.00;;;;;24.99;30.01;101602.63;5071569;28;46018;-58
2022/08/07 15:09:52;;;;;;;;;4.00;3.00;;;;;25.01;30.00;101610.50;5072719;28;45457;-59
2022/08/07 15:12:22;;;;;;;;;3.75;2.25;;;;;25.01;30.25;101600.72;5064345;28;45313;-59
2022/08/07 15:14:55;;;;;;;;;3.25;2.50;;;;;25.01;29.92;101599.88;5060568;28;45760;-58
2022/08/07 15:17:31;;;;;;;;;4.50;2.75;;;;;25.01;30.02;101587.47;5057502;28;45326;-57
2022/08/07 15:20:04;;;;;;;;;2.00;2.00;;;;;25.01;30.05;101598.06;5059241;28;45286;-58
2022/08/07 15:22:43;;;;;;;;;2.00;2.00;;;;;25.02;29.68;101596.28;5060615;28;45335;-58
2022/08/07 15:25:12;;;;;;;;;3.75;2.00;;;;;25.04;29.69;101598.84;5063330;28;45364;-58
2022/08/07 15:27:44;;;;;;;;;3.25;2.25;;;;;25.04;30.01;101598.84;5066427;28;45590;-58
2022/08/07 15:30:12;;;;;;;;;2.00;2.00;;;;;25.04;29.67;101598.84;5072223;28;45727;-58
2022/08/07 15:32:45;;;;;;;;;3.00;1.50;;;;;25.04;30.06;101598.84;5068990;28;45264;-58
2022/08/07 15:35:15;;;;;;;;;3.00;2.00;;;;;25.04;30.23;101589.06;5064343;28;45319;-58
2022/08/07 15:37:47;;;;;;;;;3.00;3.00;;;;;25.04;29.57;101589.06;5063946;28;46342;-58
2022/08/07 15:40:15;;;;;;;;;2.25;2.25;;;;;25.06;29.75;101589.00;5064116;28;45291;-58
2022/08/07 15:42:40;;;;;;;;;4.75;4.00;;;;;25.06;29.96;101589.00;5062332;28;45362;-58
2022/08/07 15:45:10;;;;;;;;;4.00;2.33;;;;;25.07;29.86;101588.03;5062864;28;45212;-57
2022/08/07 15:47:42;;;;;;;;;2.00;2.00;;;;;25.07;29.47;101588.03;5063639;28;46196;-57
2022/08/07 15:50:15;;;;;;;;;2.50;2.50;;;;;25.06;30.22;101591.66;5061808;28;45354;-58
2022/08/07 15:52:42;;;;;;;;;4.50;2.00;;;;;25.09;30.38;101583.47;5061879;28;45270;-58
2022/08/07 15:55:14;;;;;;;;;2.50;2.00;;;;;25.08;30.33;101584.44;5060583;28;45615;-57
2022/08/07 15:57:45;;;;;;;;;4.50;4.00;;;;;25.11;30.29;101584.22;5059580;28;47485;-58
2022/08/07 16:00:11;;;;;;;;;6.00;3.00;;;;;25.10;31.00;101583.41;5056401;28;45815;-58
2022/08/07 16:02:45;;;;;;;;;4.00;3.00;;;;;25.11;30.65;101584.22;5056938;28;45229;-58
2022/08/07 16:05:19;;;;;;;;;3.00;3.00;;;;;25.12;30.84;101576.19;5056533;28;45487;-58
2022/08/07 16:07:52;;;;;;;;;4.75;2.75;;;;;25.12;30.98;101578.84;5056580;28;47182;-58
2022/08/07 16:10:23;;;;;;;;;3.25;3.25;;;;;25.13;31.81;101571.72;5056513;28;45869;-58
2022/08/07 16:13:01;;;;;;;;;5.25;3.00;;;;;25.14;31.68;101579.56;5057078;28;45287;-58
2022/08/07 16:15:52;;;;;;;;;3.00;3.00;;;;;25.14;31.52;101574.28;5056671;28;45223;-58